Flight Track Log - Related Links

Times and Time Zones

All times are in EDT time to prevent confusion due to time zone crossing. See the RPA3446 flight status page for this flight to view local times or setup timezone preferences in your user account.

Time Position Orientation Groundspeed Altitude Reporting Facility
EDT Latitude Longitude Course Direction KTS MPH feet Rate Location/Type
Tue 09:29:57 PM 39.8667 -75.2833 90° East 160 184 800  Level Philadelphia TRACON
Tue 09:30:39 PM 39.8333 -75.3167 218° Southwest 154 177 1,900 1,529 Climbing Philadelphia TRACON
Tue 09:31:39 PM 39.8000 -75.3500 218° Southwest 226 260 3,400 1,835 Climbing Philadelphia TRACON
Tue 09:32:00 PM 39.8167 -74.8789 90° East  Level FlightAware Approximate
Tue 09:32:40 PM 39.7333 -75.3667 191° South 287 330 5,600  Level Philadelphia TRACON
Tue 09:33:00 PM 39.7952 -74.7589 105° East  Level FlightAware Approximate
Tue 09:33:40 PM 39.7167 -75.2667 102° East 281 323 8,100  Level Philadelphia TRACON
Tue 09:34:00 PM 39.7954 -74.6394 75° East  Level FlightAware Approximate
Tue 09:35:00 PM 39.8000 -74.5167 90° East  Level FlightAware Approximate
Tue 09:35:40 PM 39.7503 -75.0531 78° East 328 377 11,300  Level New York Center
Tue 09:36:41 PM 39.7650 -74.9297 81° East 335 386 12,000 397 Climbing New York Center
Tue 09:37:41 PM 39.7881 -74.8097 76° East 335 386 12,100 836 Climbing New York Center
Tue 09:38:43 PM 39.8592 -74.7381 38° Northeast 317 365 13,700 1,600 Climbing New York Center
Tue 09:39:41 PM 39.9389 -74.6667 34° Northeast 317 365 15,300 1,525 Climbing New York Center
Tue 09:40:41 PM 40.0025 -74.5700 49° Northeast 325 374 16,700 1,300 Climbing New York Center
Tue 09:41:41 PM 40.0436 -74.4503 66° East 347 399 17,900 1,311 Climbing New York Center
Tue 09:42:40 PM 40.0458 -74.3119 89° East 347 399 19,300 1,412 Climbing New York Center
Tue 09:43:40 PM 40.0500 -74.1739 88° East 360 414 20,700 1,289 Climbing New York Center
Tue 09:44:41 PM 40.0561 -74.0333 87° East 372 428 21,900 959 Climbing New York Center
Tue 09:46:29 PM 40.1592 -73.8128 59° Northeast 402 463 23,400 888 Climbing Boston Center
Tue 09:47:30 PM 40.2172 -73.7017 56° Northeast 411 473 24,400 1,082 Climbing Boston Center
Tue 09:48:31 PM 40.2911 -73.5619 55° Northeast 417 480 25,600 1,131 Climbing Boston Center
Tue 09:49:32 PM 40.3561 -73.4311 57° Northeast 427 491 26,700 1,091 Climbing Boston Center
Tue 09:50:32 PM 40.4239 -73.3019 55° Northeast 429 494 27,800 1,131 Climbing Boston Center
Tue 09:51:34 PM 40.4914 -73.1697 56° Northeast 432 497 29,000 1,122 Climbing Boston Center
Tue 09:52:35 PM 40.5597 -73.0358 56° Northeast 440 506 30,100 1,131 Climbing Boston Center
Tue 09:53:36 PM 40.6264 -72.9014 57° Northeast 440 506 31,300 984 Climbing Boston Center
Tue 09:54:37 PM 40.6939 -72.7669 56° Northeast 441 507 32,100 836 Climbing Boston Center
Tue 09:55:38 PM 40.7958 -72.6397 43° Northeast 452 520 33,000 793 Climbing Boston Center
Tue 09:56:38 PM 40.8994 -72.5489 34° Northeast 456 525 33,700 689 Climbing Boston Center
Tue 09:57:40 PM 41.0028 -72.4572 34° Northeast 451 519 34,400 581 Climbing Boston Center
Tue 09:58:42 PM 41.1056 -72.3667 34° Northeast 449 517 34,900 295 Climbing Boston Center
Tue 09:59:42 PM 41.2181 -72.2669 34° Northeast 453 521 35,000 50 Climbing Boston Center
Tue 10:00:43 PM 41.3242 -72.1722 34° Northeast 457 526 35,000  Level Boston Center
Tue 10:01:43 PM 41.4306 -72.0775 34° Northeast 459 528 35,000  Level Boston Center
Tue 10:02:45 PM 41.5356 -71.9831 34° Northeast 459 528 35,000  Level Boston Center
Tue 10:03:45 PM 41.6331 -71.8944 34° Northeast 459 528 35,000  Level Boston Center
Tue 10:04:46 PM 41.7603 -71.7797 34° Northeast 460 529 35,000  Level Boston Center
Tue 10:05:48 PM 41.8667 -71.6833 34° Northeast 461 531 35,000  Level Boston Center
Tue 10:06:48 PM 41.9717 -71.5861 35° Northeast 461 531 35,000  Level Boston Center
Tue 10:07:48 PM 42.0775 -71.4889 34° Northeast 461 531 35,000  Level Boston Center
Tue 10:08:49 PM 42.1833 -71.3917 34° Northeast 462 532 35,000  Level Boston Center
Tue 10:09:49 PM 42.2864 -71.2931 35° Northeast 461 531 35,000  Level Boston Center
Tue 10:10:53 PM 42.4050 -71.1844 34° Northeast 461 531 35,000  Level Boston Center
Tue 10:11:52 PM 42.5108 -71.0853 35° Northeast 462 532 35,000  Level Boston Center
Tue 10:12:53 PM 42.6172 -70.9858 35° Northeast 463 533 35,000  Level Boston Center
Tue 10:13:56 PM 42.7231 -70.8867 35° Northeast 463 533 35,000  Level Boston Center
Tue 10:14:56 PM 42.8300 -70.7856 35° Northeast 464 534 35,000  Level Boston Center
Tue 10:15:57 PM 42.9361 -70.6842 35° Northeast 464 534 35,000  Level Boston Center
Tue 10:16:57 PM 43.0425 -70.5861 34° Northeast 463 533 35,000  Level Boston Center
Tue 10:18:00 PM 43.1503 -70.4875 34° Northeast 463 533 35,000  Level Boston Center
Tue 10:19:02 PM 43.2575 -70.3881 34° Northeast 464 534 35,000  Level Boston Center
Tue 10:20:02 PM 43.3642 -70.2906 34° Northeast 463 533 35,000  Level Boston Center
Tue 10:21:02 PM 43.4831 -70.1797 34° Northeast 462 532 35,000 -984 Level Boston Center
Tue 10:22:04 PM 43.5889 -70.0822 34° Northeast 460 529 33,000 -2,341 Descending Boston Center
Tue 10:23:05 PM 43.6925 -69.9828 35° Northeast 453 521 30,200 -2,754 Descending Boston Center
Tue 10:24:06 PM 43.7953 -69.8856 34° Northeast 452 520 27,400 -2,459 Descending Boston Center
Tue 10:25:07 PM 43.8944 -69.7939 34° Northeast 431 496 25,200 -2,164 Descending Boston Center
Tue 10:26:08 PM 43.9881 -69.7022 35° Northeast 415 478 23,000 -2,115 Descending Boston Center
Tue 10:27:09 PM 44.0792 -69.6178 34° Northeast 396 456 20,900 -2,115 Descending Boston Center
Tue 10:28:10 PM 44.1706 -69.5297 35° Northeast 378 435 18,700 -2,066 Descending Boston Center
Tue 10:29:11 PM 44.2531 -69.4503 35° Northeast 379 436 16,700 -1,770 Descending Boston Center
Tue 10:30:12 PM 44.3364 -69.3683 35° Northeast 371 427 15,100 -1,587 Descending Boston Center
Tue 10:31:12 PM 44.4200 -69.2900 34° Northeast 366 421 13,500 -1,488 Descending Boston Center
Tue 10:32:13 PM 44.5031 -69.2253 29° Northeast 346 398 12,100 -1,475 Descending Boston Center
Tue 10:33:14 PM 44.5811 -69.1675 28° Northeast 326 375 10,500 -1,721 Descending Boston Center
Tue 10:34:15 PM 44.6728 -69.1003 28° Northeast 317 365 8,600 -1,884 Descending Boston Center
Tue 10:35:15 PM 44.7497 -69.0942 North 289 333 6,700 -1,525 Descending Boston Center
Tue 10:36:17 PM 44.8194 -69.0986 357° North 262 302 5,500 -1,131 Descending Boston Center
Tue 10:37:17 PM 44.8844 -69.1006 359° North 241 277 4,400 -1,240 Descending Boston Center
Tue 10:38:18 PM 44.9325 -69.0428 40° Northeast 254 292 3,000 -934 Descending Boston Center
Tue 10:39:19 PM 44.9061 -68.9708 117° Southeast 211 243 2,500 -689 Descending Boston Center
Tue 10:40:20 PM 44.8736 -68.9242 134° Southeast 183 211 1,600 -850 Descending Boston Center
Tue 10:41:19 PM 44.8444 -68.8825 135° Southeast 165 190 800 -706 Descending Boston Center
Tue 10:42:19 PM 44.8183 -68.8450 134° Southeast 148 170 200 -600 Descending Boston Center

Login

Don't have an account? Register now (free) for customized features, flight alerts, and more!